createdAt,value
2018-07-04T00:00:06.439Z,25.76
2018-07-04T00:03:47.646Z,25.83
2018-07-04T00:07:29.027Z,25.88
2018-07-04T00:11:10.490Z,25.72
2018-07-04T00:14:51.941Z,25.66
2018-07-04T00:18:33.079Z,25.56
2018-07-04T00:22:08.372Z,25.41
2018-07-04T00:25:49.882Z,25.45
2018-07-04T00:29:31.257Z,25.52
2018-07-04T00:33:12.758Z,25.46
2018-07-04T00:36:54.703Z,25.41
2018-07-04T00:40:36.224Z,25.17
2018-07-04T00:44:17.606Z,25.14
2018-07-04T00:47:58.893Z,25.05
2018-07-04T00:51:40.116Z,25.11
2018-07-04T00:55:21.367Z,24.84
2018-07-04T00:59:02.787Z,24.91
2018-07-04T01:02:44.180Z,24.78
2018-07-04T01:06:25.620Z,25.01
2018-07-04T01:10:07.138Z,24.96
2018-07-04T01:13:48.512Z,24.82
2018-07-04T01:17:30.006Z,24.66
2018-07-04T01:21:14.128Z,24.53
2018-07-04T01:24:55.364Z,24.53
2018-07-04T01:28:41.930Z,24.35
2018-07-04T01:32:23.522Z,24.25
2018-07-04T01:36:04.718Z,24.24
2018-07-04T01:39:45.999Z,24.11
2018-07-04T01:43:27.335Z,24.26
2018-07-04T01:47:08.756Z,24.11
2018-07-04T01:50:50.026Z,24.01
2018-07-04T01:54:31.384Z,24.11
2018-07-04T01:58:12.872Z,24.11
2018-07-04T02:01:54.106Z,24.02
2018-07-04T02:05:35.210Z,23.91
2018-07-04T02:09:16.351Z,24.03
2018-07-04T02:12:57.812Z,23.97
2018-07-04T02:16:39.222Z,23.95
2018-07-04T02:20:14.615Z,23.80
2018-07-04T02:23:56.173Z,23.75
2018-07-04T02:27:37.542Z,23.73
2018-07-04T02:31:18.883Z,23.69
2018-07-04T02:35:00.518Z,23.52
2018-07-04T02:38:41.940Z,23.30
2018-07-04T02:42:23.174Z,23.19
2018-07-04T02:46:04.304Z,23.16
2018-07-04T02:49:45.984Z,23.12
2018-07-04T02:53:27.168Z,23.12
2018-07-04T02:57:08.340Z,23.09
2018-07-04T03:00:49.508Z,22.91
2018-07-04T03:04:30.707Z,22.98
2018-07-04T03:08:12.116Z,22.96
2018-07-04T03:11:53.761Z,22.90
2018-07-04T03:15:35.096Z,22.98
2018-07-04T03:19:17.130Z,22.95
2018-07-04T03:22:58.532Z,23.04
2018-07-04T03:26:39.999Z,23.06
2018-07-04T03:30:21.282Z,23.02
2018-07-04T03:34:02.561Z,22.92
2018-07-04T03:37:43.947Z,22.94
2018-07-04T03:41:25.218Z,22.91
2018-07-04T03:45:06.436Z,23.06
2018-07-04T03:48:47.693Z,23.01
2018-07-04T03:52:28.889Z,22.82
2018-07-04T03:56:10.233Z,22.85
2018-07-04T03:59:51.576Z,22.67
2018-07-04T04:03:32.828Z,22.43
2018-07-04T04:07:14.158Z,22.54
2018-07-04T04:10:55.297Z,22.40
2018-07-04T04:14:36.712Z,22.46
2018-07-04T04:18:18.050Z,22.47
2018-07-04T04:21:59.352Z,22.74
2018-07-04T04:25:40.692Z,22.89
2018-07-04T04:29:21.947Z,23.11
2018-07-04T04:33:03.370Z,23.24
2018-07-04T04:36:44.604Z,23.44
2018-07-04T04:40:25.832Z,23.33
2018-07-04T04:44:07.051Z,23.49
2018-07-04T04:47:48.344Z,23.74
2018-07-04T04:51:29.718Z,23.73
2018-07-04T04:55:11.199Z,23.66
2018-07-04T04:58:52.459Z,23.80
2018-07-04T05:02:33.631Z,23.87
2018-07-04T05:06:14.809Z,23.97
2018-07-04T05:09:56.252Z,24.09
2018-07-04T05:13:37.914Z,24.06
2018-07-04T05:17:19.499Z,24.18
2018-07-04T05:21:00.880Z,24.38
2018-07-04T05:24:42.450Z,24.40
2018-07-04T05:28:23.667Z,24.28
2018-07-04T05:32:04.825Z,24.03
2018-07-04T05:35:46.094Z,24.18
2018-07-04T05:39:27.324Z,24.04
2018-07-04T05:43:08.864Z,23.96
2018-07-04T05:46:50.351Z,24.09
2018-07-04T05:50:31.774Z,24.26
2018-07-04T05:54:13.120Z,24.43
2018-07-04T05:57:54.451Z,24.62
2018-07-04T06:01:36.053Z,24.76
2018-07-04T06:05:17.420Z,24.93
2018-07-04T06:08:58.826Z,24.97
2018-07-04T06:12:40.182Z,25.18
2018-07-04T06:16:21.542Z,25.32
2018-07-04T06:20:02.791Z,25.46
2018-07-04T06:23:44.238Z,25.67
2018-07-04T06:27:25.512Z,25.79
2018-07-04T06:31:06.992Z,25.92
2018-07-04T06:34:48.436Z,26.03
2018-07-04T06:38:11.219Z,26.00
2018-07-04T06:41:33.979Z,26.08
2018-07-04T06:44:56.745Z,26.11
2018-07-04T06:48:19.555Z,26.26
2018-07-04T06:51:42.411Z,26.43
2018-07-04T06:55:05.249Z,26.56
2018-07-04T07:02:06.976Z,26.68
2018-07-04T07:05:48.330Z,26.86
2018-07-04T07:09:29.660Z,26.64
2018-07-04T07:13:11.022Z,26.58
2018-07-04T07:16:52.538Z,26.70
2018-07-04T07:20:33.864Z,26.70
2018-07-04T07:24:15.178Z,26.89
2018-07-04T07:27:57.084Z,27.11
2018-07-04T07:31:38.993Z,27.32
2018-07-04T07:35:20.460Z,27.17
2018-07-04T07:39:01.941Z,27.49
2018-07-04T07:42:43.254Z,27.77
2018-07-04T07:46:24.680Z,27.95
2018-07-04T07:50:06.151Z,28.14
2018-07-04T07:53:47.745Z,28.24
2018-07-04T07:57:29.217Z,28.07
2018-07-04T08:01:10.635Z,28.03
2018-07-04T08:04:52.142Z,28.38
2018-07-04T08:08:33.574Z,28.54
2018-07-04T08:12:14.871Z,28.64
2018-07-04T08:15:56.129Z,28.76
2018-07-04T08:19:37.399Z,29.06
2018-07-04T08:23:18.646Z,28.92
2018-07-04T08:27:03.516Z,29.35
2018-07-04T08:30:45.060Z,29.59
2018-07-04T08:34:26.529Z,29.73
2018-07-04T08:38:08.076Z,29.45
2018-07-04T08:41:49.271Z,29.82
2018-07-04T08:45:30.750Z,29.55
2018-07-04T08:49:12.155Z,29.86
2018-07-04T08:52:47.423Z,30.31
2018-07-04T08:56:28.828Z,30.10
2018-07-04T09:00:10.466Z,30.14
2018-07-04T09:03:51.803Z,30.94
2018-07-04T09:07:33.166Z,30.73
2018-07-04T09:11:14.494Z,30.84
2018-07-04T09:14:55.898Z,31.40
2018-07-04T09:18:37.372Z,31.52
2018-07-04T09:22:18.730Z,32.07
2018-07-04T09:26:00.045Z,31.73
2018-07-04T09:29:41.335Z,32.48
2018-07-04T09:33:22.726Z,32.91
2018-07-04T09:37:04.074Z,32.39
2018-07-04T09:40:45.526Z,31.76
2018-07-04T09:44:26.817Z,31.24
2018-07-04T09:48:08.505Z,31.49
2018-07-04T09:51:49.831Z,32.04
2018-07-04T09:55:31.442Z,31.29
2018-07-04T09:59:12.765Z,31.37
2018-07-04T10:02:54.307Z,31.43
2018-07-04T10:06:35.878Z,31.51
2018-07-04T10:10:17.226Z,32.23
2018-07-04T10:13:58.662Z,32.37
2018-07-04T10:17:39.973Z,32.58
2018-07-04T10:21:22.278Z,33.34
2018-07-04T10:25:03.664Z,33.20
2018-07-04T10:28:45.096Z,33.60
2018-07-04T10:32:26.414Z,33.93
2018-07-04T10:36:07.934Z,34.05
2018-07-04T10:39:49.378Z,34.30
2018-07-04T10:43:30.913Z,34.60
2018-07-04T10:47:12.205Z,34.98
2018-07-04T10:50:53.639Z,35.95
2018-07-04T10:54:34.990Z,35.03
2018-07-04T10:58:16.292Z,35.28
2018-07-04T11:01:57.551Z,35.22
2018-07-04T11:05:38.859Z,35.97
2018-07-04T11:09:20.151Z,36.47
2018-07-04T11:13:01.565Z,35.93
2018-07-04T11:16:42.994Z,37.25
2018-07-04T11:20:18.357Z,38.14
2018-07-04T11:23:59.792Z,37.84
2018-07-04T11:27:41.210Z,37.33
2018-07-04T11:31:22.786Z,38.55
2018-07-04T11:35:04.206Z,38.67
2018-07-04T11:38:45.640Z,38.13
2018-07-04T11:42:26.975Z,37.63
2018-07-04T11:45:58.181Z,38.27
2018-07-04T11:49:20.941Z,40.32
2018-07-04T11:52:43.755Z,41.24
2018-07-04T11:56:06.539Z,40.55
2018-07-04T11:59:29.410Z,37.25
2018-07-04T12:02:52.199Z,36.64
2018-07-04T12:06:33.788Z,36.40
2018-07-04T12:09:56.573Z,36.15
2018-07-04T12:13:20.499Z,36.76
2018-07-04T12:16:43.287Z,37.07
2018-07-04T12:20:06.048Z,37.77
2018-07-04T12:23:28.850Z,39.24
2018-07-04T12:26:51.797Z,39.91
2018-07-04T12:30:14.580Z,41.14
2018-07-04T12:33:37.399Z,41.19
2018-07-04T12:37:00.317Z,40.57
2018-07-04T12:40:23.090Z,40.53
2018-07-04T12:43:45.927Z,40.43
2018-07-04T12:47:08.777Z,39.97
2018-07-04T12:50:33.071Z,39.03
2018-07-04T12:54:01.027Z,38.02
2018-07-04T12:57:42.235Z,36.60
2018-07-04T13:01:23.523Z,36.53
2018-07-04T13:05:04.759Z,36.14
2018-07-04T13:08:46.071Z,36.16
2018-07-04T13:12:27.244Z,35.26
2018-07-04T13:16:08.548Z,34.78
2018-07-04T13:19:50.006Z,35.03
2018-07-04T13:23:31.547Z,35.33
2018-07-04T13:27:13.164Z,34.70
2018-07-04T13:30:54.436Z,34.73
2018-07-04T13:34:36.880Z,34.06
2018-07-04T13:38:18.270Z,34.32
2018-07-04T13:41:59.512Z,33.59
2018-07-04T13:45:40.927Z,34.13
2018-07-04T13:49:22.248Z,34.54
2018-07-04T13:53:03.490Z,34.47
2018-07-04T13:56:44.743Z,34.58
2018-07-04T14:00:26.035Z,34.58
2018-07-04T14:04:07.316Z,34.14
2018-07-04T14:07:48.560Z,34.45
2018-07-04T14:11:29.642Z,34.26
2018-07-04T14:15:10.818Z,34.36
2018-07-04T14:18:52.312Z,34.32
2018-07-04T14:22:33.360Z,34.25
2018-07-04T14:26:15.382Z,33.27
2018-07-04T14:29:56.741Z,33.85
2018-07-04T14:33:38.004Z,33.69
2018-07-04T14:37:19.490Z,33.26
2018-07-04T14:41:00.934Z,33.97
2018-07-04T14:44:42.446Z,34.95
2018-07-04T14:48:23.766Z,36.13
2018-07-04T14:52:05.294Z,36.20
2018-07-04T14:55:46.575Z,36.14
2018-07-04T14:59:27.719Z,35.66
2018-07-04T15:03:08.935Z,35.37
2018-07-04T15:06:50.153Z,35.20
2018-07-04T15:10:31.407Z,35.07
2018-07-04T15:14:12.675Z,34.69
2018-07-04T15:17:54.006Z,33.92
2018-07-04T15:21:35.125Z,33.40
2018-07-04T15:25:16.171Z,33.29
2018-07-04T15:28:57.408Z,32.65
2018-07-04T15:32:38.732Z,33.37
2018-07-04T15:36:19.939Z,33.84
2018-07-04T15:40:01.281Z,33.69
2018-07-04T15:43:42.596Z,33.41
2018-07-04T15:47:23.830Z,33.70
2018-07-04T15:51:05.012Z,33.68
2018-07-04T15:54:46.511Z,33.55
2018-07-04T15:58:27.765Z,33.86
2018-07-04T16:02:09.027Z,34.12
2018-07-04T16:05:50.739Z,34.01
2018-07-04T16:09:26.234Z,34.32
2018-07-04T16:13:07.651Z,33.85
2018-07-04T16:16:49.043Z,33.68
2018-07-04T16:20:30.465Z,33.62
2018-07-04T16:24:11.780Z,33.45
2018-07-04T16:27:53.047Z,33.98
2018-07-04T16:31:34.534Z,33.66
2018-07-04T16:35:15.770Z,33.96
2018-07-04T16:38:57.017Z,33.89
2018-07-04T16:42:38.468Z,33.54
2018-07-04T16:46:19.604Z,33.28
2018-07-04T16:50:01.013Z,33.41
2018-07-04T16:53:42.623Z,32.88
2018-07-04T16:57:24.110Z,33.03
2018-07-04T17:01:05.762Z,33.43
2018-07-04T17:04:47.096Z,34.42
2018-07-04T17:08:28.319Z,34.29
2018-07-04T17:12:09.703Z,33.82
2018-07-04T17:15:51.032Z,33.72
2018-07-04T17:19:32.457Z,34.04
2018-07-04T17:23:13.861Z,34.63
2018-07-04T17:26:55.251Z,34.13
2018-07-04T17:30:36.425Z,33.81
2018-07-04T17:34:17.738Z,33.56
2018-07-04T17:38:00.173Z,33.53
2018-07-04T17:41:41.637Z,33.09
2018-07-04T17:45:23.080Z,32.61
2018-07-04T17:49:04.446Z,32.53
2018-07-04T17:52:45.821Z,32.51
2018-07-04T17:56:27.494Z,32.34
2018-07-04T18:00:09.861Z,32.49
2018-07-04T18:03:52.078Z,32.29
2018-07-04T18:07:33.529Z,32.26
2018-07-04T18:11:15.143Z,32.03
2018-07-04T18:14:56.413Z,32.32
2018-07-04T18:18:38.103Z,32.21
2018-07-04T18:22:19.452Z,31.90
2018-07-04T18:26:00.773Z,32.07
2018-07-04T18:29:42.100Z,31.88
2018-07-04T18:33:23.572Z,31.38
2018-07-04T18:37:04.855Z,31.45
2018-07-04T18:40:46.165Z,31.24
2018-07-04T18:44:27.542Z,31.20
2018-07-04T18:48:08.986Z,31.07
2018-07-04T18:51:50.800Z,30.85
2018-07-04T18:55:32.243Z,30.74
2018-07-04T18:59:13.606Z,30.59
2018-07-04T19:02:54.970Z,30.46
2018-07-04T19:06:36.354Z,30.43
2018-07-04T19:10:17.873Z,30.14
2018-07-04T19:13:59.359Z,30.10
2018-07-04T19:17:40.793Z,29.89
2018-07-04T19:21:22.631Z,29.92
2018-07-04T19:25:04.372Z,29.71
2018-07-04T19:28:46.753Z,29.42
2018-07-04T19:32:28.202Z,29.20
2018-07-04T19:36:09.825Z,29.04
2018-07-04T19:39:51.079Z,29.25
2018-07-04T19:43:32.604Z,29.19
2018-07-04T19:47:14.238Z,29.01
2018-07-04T19:50:56.171Z,29.03
2018-07-04T19:54:38.036Z,28.98
2018-07-04T19:58:19.630Z,28.77
2018-07-04T20:02:00.955Z,28.70
2018-07-04T20:05:42.552Z,28.55
2018-07-04T20:09:24.191Z,28.39
2018-07-04T20:13:06.446Z,28.38
2018-07-04T20:16:47.805Z,28.17
2018-07-04T20:20:29.437Z,28.03
2018-07-04T20:24:10.808Z,27.87
2018-07-04T20:27:52.056Z,27.75
2018-07-04T20:31:33.535Z,27.70
2018-07-04T20:35:15.645Z,27.64
2018-07-04T20:38:58.018Z,27.44
2018-07-04T20:42:39.492Z,27.31
2018-07-04T20:46:20.846Z,27.16
2018-07-04T20:50:02.123Z,27.00
2018-07-04T20:53:43.854Z,27.09
2018-07-04T20:57:19.223Z,27.21
2018-07-04T21:01:00.539Z,27.40
2018-07-04T21:04:41.925Z,27.22
2018-07-04T21:08:23.412Z,27.11
2018-07-04T21:12:04.674Z,26.94
2018-07-04T21:15:45.906Z,26.87
2018-07-04T21:19:27.554Z,26.92
2018-07-04T21:23:09.195Z,26.90
2018-07-04T21:26:50.875Z,26.89
2018-07-04T21:30:32.267Z,27.04
2018-07-04T21:34:13.768Z,26.88
2018-07-04T21:37:55.141Z,26.96
2018-07-04T21:41:36.553Z,26.81
2018-07-04T21:45:17.867Z,26.80
2018-07-04T21:48:59.245Z,26.65
2018-07-04T21:52:40.703Z,26.45
2018-07-04T21:56:22.130Z,26.43
2018-07-04T22:00:03.530Z,26.25
2018-07-04T22:03:44.927Z,26.08
2018-07-04T22:07:26.378Z,25.78
2018-07-04T22:11:07.851Z,25.74
2018-07-04T22:14:49.196Z,25.55
2018-07-04T22:18:30.702Z,25.42
2018-07-04T22:22:11.913Z,25.39
2018-07-04T22:25:53.327Z,25.32
2018-07-04T22:29:34.634Z,25.13
2018-07-04T22:33:15.998Z,25.13
2018-07-04T22:36:57.478Z,25.09
2018-07-04T22:40:38.846Z,25.09
2018-07-04T22:44:20.543Z,24.90
2018-07-04T22:48:01.928Z,24.80
2018-07-04T22:51:43.206Z,24.70
2018-07-04T22:55:24.520Z,24.61
2018-07-04T22:59:05.829Z,24.44
2018-07-04T23:02:47.196Z,24.46
2018-07-04T23:06:28.688Z,24.42
2018-07-04T23:10:10.001Z,24.32
2018-07-04T23:13:51.500Z,24.22
2018-07-04T23:17:33.088Z,24.21
2018-07-04T23:21:14.579Z,24.15
2018-07-04T23:24:55.939Z,24.06
2018-07-04T23:28:37.280Z,24.06
2018-07-04T23:32:18.508Z,23.91
2018-07-04T23:35:59.802Z,23.81
2018-07-04T23:39:40.995Z,23.79
2018-07-04T23:43:22.286Z,23.87
2018-07-04T23:47:03.675Z,24.01
2018-07-04T23:50:45.043Z,23.95
2018-07-04T23:54:26.416Z,23.89
2018-07-04T23:58:07.775Z,23.69
